sensor_id;sensor_type;location;lat;lon;timestamp;P1;durP1;ratioP1;P2;durP2;ratioP2
3733;SDS011;1882;52.256;8.874;2023-06-26T00:01:29;10.10;;;8.33;;
3733;SDS011;1882;52.256;8.874;2023-06-26T00:03:57;9.00;;;8.10;;
3733;SDS011;1882;52.256;8.874;2023-06-26T00:06:25;9.53;;;8.27;;
3733;SDS011;1882;52.256;8.874;2023-06-26T00:08:55;11.20;;;8.70;;
3733;SDS011;1882;52.256;8.874;2023-06-26T00:11:25;9.93;;;8.17;;
3733;SDS011;1882;52.256;8.874;2023-06-26T00:13:53;9.87;;;8.10;;
3733;SDS011;1882;52.256;8.874;2023-06-26T00:16:20;9.13;;;7.70;;
3733;SDS011;1882;52.256;8.874;2023-06-26T00:18:47;8.80;;;7.90;;
3733;SDS011;1882;52.256;8.874;2023-06-26T00:21:13;9.07;;;8.17;;
3733;SDS011;1882;52.256;8.874;2023-06-26T00:23:40;9.80;;;8.70;;
3733;SDS011;1882;52.256;8.874;2023-06-26T00:26:07;8.40;;;7.20;;
3733;SDS011;1882;52.256;8.874;2023-06-26T00:28:33;10.00;;;8.57;;
3733;SDS011;1882;52.256;8.874;2023-06-26T00:31:00;9.47;;;8.23;;
3733;SDS011;1882;52.256;8.874;2023-06-26T00:33:30;10.97;;;8.50;;
3733;SDS011;1882;52.256;8.874;2023-06-26T00:35:59;9.10;;;7.80;;
3733;SDS011;1882;52.256;8.874;2023-06-26T00:38:26;8.87;;;7.97;;
3733;SDS011;1882;52.256;8.874;2023-06-26T00:40:53;9.70;;;8.33;;
3733;SDS011;1882;52.256;8.874;2023-06-26T00:43:22;9.57;;;8.50;;
3733;SDS011;1882;52.256;8.874;2023-06-26T00:45:51;9.97;;;8.10;;
3733;SDS011;1882;52.256;8.874;2023-06-26T00:48:18;9.53;;;7.70;;
3733;SDS011;1882;52.256;8.874;2023-06-26T00:50:45;8.80;;;7.90;;
3733;SDS011;1882;52.256;8.874;2023-06-26T00:53:12;8.90;;;7.80;;
3733;SDS011;1882;52.256;8.874;2023-06-26T00:55:39;12.70;;;8.60;;
3733;SDS011;1882;52.256;8.874;2023-06-26T00:58:10;9.17;;;8.17;;
3733;SDS011;1882;52.256;8.874;2023-06-26T01:00:37;10.80;;;7.87;;
3733;SDS011;1882;52.256;8.874;2023-06-26T01:03:04;9.70;;;8.00;;
3733;SDS011;1882;52.256;8.874;2023-06-26T01:05:31;10.00;;;7.60;;
3733;SDS011;1882;52.256;8.874;2023-06-26T01:07:57;9.70;;;7.97;;
3733;SDS011;1882;52.256;8.874;2023-06-26T01:10:25;9.53;;;8.00;;
3733;SDS011;1882;52.256;8.874;2023-06-26T01:12:54;9.80;;;8.20;;
3733;SDS011;1882;52.256;8.874;2023-06-26T01:15:22;9.10;;;8.17;;
3733;SDS011;1882;52.256;8.874;2023-06-26T01:17:50;12.20;;;7.70;;
3733;SDS011;1882;52.256;8.874;2023-06-26T01:20:18;9.70;;;8.30;;
3733;SDS011;1882;52.256;8.874;2023-06-26T01:25:35;11.00;;;8.60;;
3733;SDS011;1882;52.256;8.874;2023-06-26T01:28:09;16.03;;;8.00;;
3733;SDS011;1882;52.256;8.874;2023-06-26T01:30:39;8.50;;;7.60;;
3733;SDS011;1882;52.256;8.874;2023-06-26T01:33:08;10.90;;;7.90;;
3733;SDS011;1882;52.256;8.874;2023-06-26T01:35:35;10.57;;;7.67;;
3733;SDS011;1882;52.256;8.874;2023-06-26T01:38:15;10.47;;;7.83;;
3733;SDS011;1882;52.256;8.874;2023-06-26T01:40:42;9.73;;;8.10;;
3733;SDS011;1882;52.256;8.874;2023-06-26T01:43:31;8.90;;;8.00;;
3733;SDS011;1882;52.256;8.874;2023-06-26T01:46:39;10.67;;;8.10;;
3733;SDS011;1882;52.256;8.874;2023-06-26T01:49:23;9.20;;;7.90;;
3733;SDS011;1882;52.256;8.874;2023-06-26T01:51:59;9.00;;;7.30;;
3733;SDS011;1882;52.256;8.874;2023-06-26T01:54:39;11.30;;;8.47;;
3733;SDS011;1882;52.256;8.874;2023-06-26T01:57:11;9.30;;;8.27;;
3733;SDS011;1882;52.256;8.874;2023-06-26T01:59:39;11.33;;;8.23;;
3733;SDS011;1882;52.256;8.874;2023-06-26T02:02:07;11.90;;;8.20;;
3733;SDS011;1882;52.256;8.874;2023-06-26T02:04:36;12.63;;;8.30;;
3733;SDS011;1882;52.256;8.874;2023-06-26T02:07:04;10.83;;;8.10;;
3733;SDS011;1882;52.256;8.874;2023-06-26T02:09:31;9.30;;;7.87;;
3733;SDS011;1882;52.256;8.874;2023-06-26T02:11:58;10.43;;;7.50;;
3733;SDS011;1882;52.256;8.874;2023-06-26T02:14:25;10.03;;;7.50;;
3733;SDS011;1882;52.256;8.874;2023-06-26T02:16:51;10.13;;;8.50;;
3733;SDS011;1882;52.256;8.874;2023-06-26T02:19:18;9.03;;;8.10;;
3733;SDS011;1882;52.256;8.874;2023-06-26T02:21:53;8.83;;;7.70;;
3733;SDS011;1882;52.256;8.874;2023-06-26T02:24:23;9.60;;;7.80;;
3733;SDS011;1882;52.256;8.874;2023-06-26T02:26:49;10.53;;;7.60;;
3733;SDS011;1882;52.256;8.874;2023-06-26T02:29:26;9.27;;;7.83;;
3733;SDS011;1882;52.256;8.874;2023-06-26T02:31:52;12.80;;;8.10;;
3733;SDS011;1882;52.256;8.874;2023-06-26T02:34:19;9.80;;;7.60;;
3733;SDS011;1882;52.256;8.874;2023-06-26T02:36:46;11.73;;;8.23;;
3733;SDS011;1882;52.256;8.874;2023-06-26T02:39:13;9.10;;;7.67;;
3733;SDS011;1882;52.256;8.874;2023-06-26T02:41:47;9.23;;;7.43;;
3733;SDS011;1882;52.256;8.874;2023-06-26T02:44:16;9.70;;;8.17;;
3733;SDS011;1882;52.256;8.874;2023-06-26T02:46:43;11.37;;;8.50;;
3733;SDS011;1882;52.256;8.874;2023-06-26T02:49:12;9.00;;;7.50;;
3733;SDS011;1882;52.256;8.874;2023-06-26T02:51:39;11.30;;;8.43;;
3733;SDS011;1882;52.256;8.874;2023-06-26T02:54:13;9.20;;;7.80;;
3733;SDS011;1882;52.256;8.874;2023-06-26T02:56:50;10.60;;;8.37;;
3733;SDS011;1882;52.256;8.874;2023-06-26T02:59:21;9.80;;;7.87;;
3733;SDS011;1882;52.256;8.874;2023-06-26T03:01:49;8.00;;;6.93;;
3733;SDS011;1882;52.256;8.874;2023-06-26T03:04:16;14.73;;;7.87;;
3733;SDS011;1882;52.256;8.874;2023-06-26T03:06:44;12.63;;;7.83;;
3733;SDS011;1882;52.256;8.874;2023-06-26T03:09:11;9.60;;;7.53;;
3733;SDS011;1882;52.256;8.874;2023-06-26T03:11:38;9.93;;;7.83;;
3733;SDS011;1882;52.256;8.874;2023-06-26T03:14:05;12.83;;;8.60;;
3733;SDS011;1882;52.256;8.874;2023-06-26T03:16:31;10.20;;;8.20;;
3733;SDS011;1882;52.256;8.874;2023-06-26T03:18:58;9.37;;;8.20;;
3733;SDS011;1882;52.256;8.874;2023-06-26T03:21:26;9.50;;;8.23;;
3733;SDS011;1882;52.256;8.874;2023-06-26T03:23:53;10.40;;;8.37;;
3733;SDS011;1882;52.256;8.874;2023-06-26T03:26:19;10.03;;;8.20;;
3733;SDS011;1882;52.256;8.874;2023-06-26T03:28:47;11.17;;;8.03;;
3733;SDS011;1882;52.256;8.874;2023-06-26T03:31:14;12.70;;;9.07;;
3733;SDS011;1882;52.256;8.874;2023-06-26T03:33:41;8.47;;;7.57;;
3733;SDS011;1882;52.256;8.874;2023-06-26T03:36:07;10.50;;;7.90;;
3733;SDS011;1882;52.256;8.874;2023-06-26T03:38:34;11.40;;;8.47;;
3733;SDS011;1882;52.256;8.874;2023-06-26T03:41:03;11.43;;;8.40;;
3733;SDS011;1882;52.256;8.874;2023-06-26T03:43:30;10.67;;;8.30;;
3733;SDS011;1882;52.256;8.874;2023-06-26T03:46:10;8.80;;;7.80;;
3733;SDS011;1882;52.256;8.874;2023-06-26T03:48:37;8.57;;;7.67;;
3733;SDS011;1882;52.256;8.874;2023-06-26T03:51:04;8.33;;;7.40;;
3733;SDS011;1882;52.256;8.874;2023-06-26T03:53:33;8.50;;;7.60;;
3733;SDS011;1882;52.256;8.874;2023-06-26T03:56:00;8.37;;;7.40;;
3733;SDS011;1882;52.256;8.874;2023-06-26T03:58:29;10.57;;;8.00;;
3733;SDS011;1882;52.256;8.874;2023-06-26T04:00:58;9.77;;;7.57;;
3733;SDS011;1882;52.256;8.874;2023-06-26T04:03:27;8.77;;;7.30;;
3733;SDS011;1882;52.256;8.874;2023-06-26T04:05:54;7.40;;;6.70;;
3733;SDS011;1882;52.256;8.874;2023-06-26T04:08:23;8.43;;;7.60;;
3733;SDS011;1882;52.256;8.874;2023-06-26T04:10:51;7.73;;;6.93;;
3733;SDS011;1882;52.256;8.874;2023-06-26T04:13:18;7.87;;;6.83;;
3733;SDS011;1882;52.256;8.874;2023-06-26T04:15:45;7.73;;;6.93;;
3733;SDS011;1882;52.256;8.874;2023-06-26T04:18:11;7.57;;;6.80;;
3733;SDS011;1882;52.256;8.874;2023-06-26T04:20:39;9.73;;;7.60;;
3733;SDS011;1882;52.256;8.874;2023-06-26T04:23:08;11.67;;;7.10;;
3733;SDS011;1882;52.256;8.874;2023-06-26T04:25:34;7.87;;;7.00;;
3733;SDS011;1882;52.256;8.874;2023-06-26T04:28:04;9.00;;;6.80;;
3733;SDS011;1882;52.256;8.874;2023-06-26T04:30:31;8.53;;;6.77;;
3733;SDS011;1882;52.256;8.874;2023-06-26T04:32:57;7.10;;;6.40;;
3733;SDS011;1882;52.256;8.874;2023-06-26T04:35:25;7.03;;;6.33;;
3733;SDS011;1882;52.256;8.874;2023-06-26T04:37:52;10.13;;;6.83;;
3733;SDS011;1882;52.256;8.874;2023-06-26T04:40:18;7.23;;;6.50;;
3733;SDS011;1882;52.256;8.874;2023-06-26T04:42:45;7.97;;;7.17;;
3733;SDS011;1882;52.256;8.874;2023-06-26T04:45:11;7.03;;;6.33;;
3733;SDS011;1882;52.256;8.874;2023-06-26T04:47:38;7.07;;;6.40;;
3733;SDS011;1882;52.256;8.874;2023-06-26T04:50:06;7.60;;;6.90;;
3733;SDS011;1882;52.256;8.874;2023-06-26T04:52:33;7.17;;;6.30;;
3733;SDS011;1882;52.256;8.874;2023-06-26T04:55:00;7.80;;;7.10;;
3733;SDS011;1882;52.256;8.874;2023-06-26T04:57:26;7.10;;;6.40;;
3733;SDS011;1882;52.256;8.874;2023-06-26T04:59:53;7.43;;;6.40;;
3733;SDS011;1882;52.256;8.874;2023-06-26T05:02:20;6.80;;;6.00;;
3733;SDS011;1882;52.256;8.874;2023-06-26T05:04:47;7.77;;;6.90;;
3733;SDS011;1882;52.256;8.874;2023-06-26T05:07:16;7.00;;;6.30;;
3733;SDS011;1882;52.256;8.874;2023-06-26T05:09:43;7.00;;;5.93;;
3733;SDS011;1882;52.256;8.874;2023-06-26T05:12:09;6.97;;;6.20;;
3733;SDS011;1882;52.256;8.874;2023-06-26T05:14:36;7.10;;;6.50;;
3733;SDS011;1882;52.256;8.874;2023-06-26T05:17:03;7.13;;;6.43;;
3733;SDS011;1882;52.256;8.874;2023-06-26T05:19:37;7.67;;;6.80;;
3733;SDS011;1882;52.256;8.874;2023-06-26T05:22:04;7.30;;;6.60;;
3733;SDS011;1882;52.256;8.874;2023-06-26T05:24:37;7.10;;;6.40;;
3733;SDS011;1882;52.256;8.874;2023-06-26T05:27:04;6.20;;;5.70;;
3733;SDS011;1882;52.256;8.874;2023-06-26T05:29:31;7.00;;;6.40;;
3733;SDS011;1882;52.256;8.874;2023-06-26T05:32:01;8.13;;;7.07;;
3733;SDS011;1882;52.256;8.874;2023-06-26T05:34:29;7.47;;;6.13;;
3733;SDS011;1882;52.256;8.874;2023-06-26T05:36:58;6.90;;;6.20;;
3733;SDS011;1882;52.256;8.874;2023-06-26T05:39:25;8.00;;;6.50;;
3733;SDS011;1882;52.256;8.874;2023-06-26T05:41:52;7.53;;;6.63;;
3733;SDS011;1882;52.256;8.874;2023-06-26T05:44:19;7.13;;;6.47;;
3733;SDS011;1882;52.256;8.874;2023-06-26T05:46:46;6.30;;;5.70;;
3733;SDS011;1882;52.256;8.874;2023-06-26T05:49:18;7.20;;;6.50;;
3733;SDS011;1882;52.256;8.874;2023-06-26T05:51:52;8.80;;;6.90;;
3733;SDS011;1882;52.256;8.874;2023-06-26T05:54:23;7.20;;;6.60;;
3733;SDS011;1882;52.256;8.874;2023-06-26T05:56:55;8.33;;;6.70;;
3733;SDS011;1882;52.256;8.874;2023-06-26T05:59:23;6.90;;;6.30;;
3733;SDS011;1882;52.256;8.874;2023-06-26T06:01:50;7.27;;;6.47;;
3733;SDS011;1882;52.256;8.874;2023-06-26T06:04:18;7.30;;;6.53;;
3733;SDS011;1882;52.256;8.874;2023-06-26T06:06:47;6.87;;;6.27;;
3733;SDS011;1882;52.256;8.874;2023-06-26T06:09:25;7.47;;;6.43;;
3733;SDS011;1882;52.256;8.874;2023-06-26T06:11:52;7.40;;;6.70;;
3733;SDS011;1882;52.256;8.874;2023-06-26T06:14:18;7.63;;;6.73;;
3733;SDS011;1882;52.256;8.874;2023-06-26T06:16:49;7.90;;;7.10;;
3733;SDS011;1882;52.256;8.874;2023-06-26T06:19:20;8.20;;;6.93;;
3733;SDS011;1882;52.256;8.874;2023-06-26T06:21:50;9.17;;;7.57;;
3733;SDS011;1882;52.256;8.874;2023-06-26T06:24:21;7.30;;;6.60;;
3733;SDS011;1882;52.256;8.874;2023-06-26T06:26:50;10.00;;;6.70;;
3733;SDS011;1882;52.256;8.874;2023-06-26T06:29:17;7.77;;;7.07;;
3733;SDS011;1882;52.256;8.874;2023-06-26T06:31:48;7.50;;;6.80;;
3733;SDS011;1882;52.256;8.874;2023-06-26T06:34:21;8.83;;;6.93;;
3733;SDS011;1882;52.256;8.874;2023-06-26T06:36:48;9.47;;;7.17;;
3733;SDS011;1882;52.256;8.874;2023-06-26T06:39:18;8.00;;;7.13;;
3733;SDS011;1882;52.256;8.874;2023-06-26T06:41:52;8.83;;;6.93;;
3733;SDS011;1882;52.256;8.874;2023-06-26T06:44:20;12.40;;;7.40;;
3733;SDS011;1882;52.256;8.874;2023-06-26T06:46:48;8.93;;;8.03;;
3733;SDS011;1882;52.256;8.874;2023-06-26T06:49:14;9.57;;;8.00;;
3733;SDS011;1882;52.256;8.874;2023-06-26T06:51:41;12.43;;;8.10;;
3733;SDS011;1882;52.256;8.874;2023-06-26T06:54:08;8.83;;;7.83;;
3733;SDS011;1882;52.256;8.874;2023-06-26T06:56:37;9.37;;;8.33;;
3733;SDS011;1882;52.256;8.874;2023-06-26T06:59:03;11.13;;;7.97;;
3733;SDS011;1882;52.256;8.874;2023-06-26T07:01:30;8.90;;;8.00;;
3733;SDS011;1882;52.256;8.874;2023-06-26T07:03:57;10.57;;;8.70;;
3733;SDS011;1882;52.256;8.874;2023-06-26T07:06:24;10.90;;;8.40;;
3733;SDS011;1882;52.256;8.874;2023-06-26T07:08:53;12.73;;;9.33;;
3733;SDS011;1882;52.256;8.874;2023-06-26T07:11:19;10.40;;;8.30;;
3733;SDS011;1882;52.256;8.874;2023-06-26T07:13:46;12.53;;;9.00;;
3733;SDS011;1882;52.256;8.874;2023-06-26T07:16:13;10.53;;;9.13;;
3733;SDS011;1882;52.256;8.874;2023-06-26T07:18:41;11.53;;;9.83;;
3733;SDS011;1882;52.256;8.874;2023-06-26T07:21:09;10.67;;;9.57;;
3733;SDS011;1882;52.256;8.874;2023-06-26T07:23:36;10.60;;;9.23;;
3733;SDS011;1882;52.256;8.874;2023-06-26T07:26:03;12.00;;;10.00;;
3733;SDS011;1882;52.256;8.874;2023-06-26T07:28:29;13.80;;;9.90;;
3733;SDS011;1882;52.256;8.874;2023-06-26T07:30:58;12.03;;;10.73;;
3733;SDS011;1882;52.256;8.874;2023-06-26T07:33:29;11.30;;;9.50;;
3733;SDS011;1882;52.256;8.874;2023-06-26T07:35:56;17.00;;;11.33;;
3733;SDS011;1882;52.256;8.874;2023-06-26T07:38:22;15.97;;;11.77;;
3733;SDS011;1882;52.256;8.874;2023-06-26T07:40:49;14.50;;;10.83;;
3733;SDS011;1882;52.256;8.874;2023-06-26T07:43:16;15.27;;;10.10;;
3733;SDS011;1882;52.256;8.874;2023-06-26T07:45:47;17.67;;;10.73;;
3733;SDS011;1882;52.256;8.874;2023-06-26T07:48:13;17.53;;;12.07;;
3733;SDS011;1882;52.256;8.874;2023-06-26T07:50:40;15.00;;;11.00;;
3733;SDS011;1882;52.256;8.874;2023-06-26T07:53:07;17.20;;;12.00;;
3733;SDS011;1882;52.256;8.874;2023-06-26T07:55:34;14.77;;;12.20;;
3733;SDS011;1882;52.256;8.874;2023-06-26T07:58:03;13.43;;;11.20;;
3733;SDS011;1882;52.256;8.874;2023-06-26T08:00:29;13.70;;;10.50;;
3733;SDS011;1882;52.256;8.874;2023-06-26T08:02:56;16.50;;;11.23;;
3733;SDS011;1882;52.256;8.874;2023-06-26T08:05:23;14.00;;;10.40;;
3733;SDS011;1882;52.256;8.874;2023-06-26T08:07:50;14.10;;;11.00;;
3733;SDS011;1882;52.256;8.874;2023-06-26T08:10:17;13.67;;;11.60;;
3733;SDS011;1882;52.256;8.874;2023-06-26T08:12:43;24.93;;;12.10;;
3733;SDS011;1882;52.256;8.874;2023-06-26T08:15:11;12.70;;;11.17;;
3733;SDS011;1882;52.256;8.874;2023-06-26T08:17:41;13.10;;;10.57;;
3733;SDS011;1882;52.256;8.874;2023-06-26T08:20:08;15.53;;;11.60;;
3733;SDS011;1882;52.256;8.874;2023-06-26T08:22:45;13.93;;;11.17;;
3733;SDS011;1882;52.256;8.874;2023-06-26T08:25:14;13.90;;;11.43;;
3733;SDS011;1882;52.256;8.874;2023-06-26T08:27:41;13.10;;;11.00;;
3733;SDS011;1882;52.256;8.874;2023-06-26T08:30:15;13.27;;;11.00;;
3733;SDS011;1882;52.256;8.874;2023-06-26T08:32:41;15.77;;;11.73;;
3733;SDS011;1882;52.256;8.874;2023-06-26T08:35:10;13.73;;;11.07;;
3733;SDS011;1882;52.256;8.874;2023-06-26T08:37:43;17.40;;;12.33;;
3733;SDS011;1882;52.256;8.874;2023-06-26T08:40:10;15.77;;;10.97;;
3733;SDS011;1882;52.256;8.874;2023-06-26T08:42:41;16.87;;;11.63;;
3733;SDS011;1882;52.256;8.874;2023-06-26T08:45:19;15.20;;;11.07;;
3733;SDS011;1882;52.256;8.874;2023-06-26T08:47:46;13.70;;;11.50;;
3733;SDS011;1882;52.256;8.874;2023-06-26T08:50:14;14.27;;;11.80;;
3733;SDS011;1882;52.256;8.874;2023-06-26T08:52:45;12.50;;;11.10;;
3733;SDS011;1882;52.256;8.874;2023-06-26T08:55:30;14.70;;;11.57;;
3733;SDS011;1882;52.256;8.874;2023-06-26T08:57:58;15.73;;;11.20;;
3733;SDS011;1882;52.256;8.874;2023-06-26T09:00:24;15.60;;;11.50;;
3733;SDS011;1882;52.256;8.874;2023-06-26T09:02:51;17.90;;;11.90;;
3733;SDS011;1882;52.256;8.874;2023-06-26T09:05:20;18.70;;;11.77;;
3733;SDS011;1882;52.256;8.874;2023-06-26T09:07:47;17.37;;;11.77;;
3733;SDS011;1882;52.256;8.874;2023-06-26T09:10:14;17.67;;;11.67;;
3733;SDS011;1882;52.256;8.874;2023-06-26T09:12:41;14.33;;;11.30;;
3733;SDS011;1882;52.256;8.874;2023-06-26T09:15:07;15.73;;;11.70;;
3733;SDS011;1882;52.256;8.874;2023-06-26T09:17:38;16.30;;;11.60;;
3733;SDS011;1882;52.256;8.874;2023-06-26T09:20:06;14.53;;;11.10;;
3733;SDS011;1882;52.256;8.874;2023-06-26T09:22:37;17.00;;;11.67;;
3733;SDS011;1882;52.256;8.874;2023-06-26T09:25:05;18.10;;;12.07;;
3733;SDS011;1882;52.256;8.874;2023-06-26T09:27:32;14.90;;;11.53;;
3733;SDS011;1882;52.256;8.874;2023-06-26T09:29:59;17.43;;;11.13;;
3733;SDS011;1882;52.256;8.874;2023-06-26T09:32:26;15.67;;;11.50;;
3733;SDS011;1882;52.256;8.874;2023-06-26T09:34:54;15.50;;;10.43;;
3733;SDS011;1882;52.256;8.874;2023-06-26T09:37:23;14.70;;;10.27;;
3733;SDS011;1882;52.256;8.874;2023-06-26T09:39:54;14.77;;;9.30;;
3733;SDS011;1882;52.256;8.874;2023-06-26T09:42:21;11.23;;;9.40;;
3733;SDS011;1882;52.256;8.874;2023-06-26T09:44:47;13.50;;;9.50;;
3733;SDS011;1882;52.256;8.874;2023-06-26T09:47:18;11.13;;;9.10;;
3733;SDS011;1882;52.256;8.874;2023-06-26T09:49:46;13.10;;;9.10;;
3733;SDS011;1882;52.256;8.874;2023-06-26T09:52:16;16.03;;;9.17;;
3733;SDS011;1882;52.256;8.874;2023-06-26T09:54:43;13.37;;;8.97;;
3733;SDS011;1882;52.256;8.874;2023-06-26T09:57:20;11.07;;;8.60;;
3733;SDS011;1882;52.256;8.874;2023-06-26T09:59:47;12.53;;;9.07;;
3733;SDS011;1882;52.256;8.874;2023-06-26T10:02:14;13.73;;;8.73;;
3733;SDS011;1882;52.256;8.874;2023-06-26T10:04:41;14.67;;;8.90;;
3733;SDS011;1882;52.256;8.874;2023-06-26T10:07:08;12.73;;;8.67;;
3733;SDS011;1882;52.256;8.874;2023-06-26T10:09:40;11.23;;;8.03;;
3733;SDS011;1882;52.256;8.874;2023-06-26T10:14:41;12.00;;;7.87;;
3733;SDS011;1882;52.256;8.874;2023-06-26T10:17:15;13.83;;;8.73;;
3733;SDS011;1882;52.256;8.874;2023-06-26T10:19:43;11.13;;;8.20;;
3733;SDS011;1882;52.256;8.874;2023-06-26T10:22:11;13.80;;;9.10;;
3733;SDS011;1882;52.256;8.874;2023-06-26T10:24:38;12.90;;;8.33;;
3733;SDS011;1882;52.256;8.874;2023-06-26T10:27:22;10.90;;;8.50;;
3733;SDS011;1882;52.256;8.874;2023-06-26T10:29:54;17.20;;;7.77;;
3733;SDS011;1882;52.256;8.874;2023-06-26T10:32:23;13.20;;;8.57;;
3733;SDS011;1882;52.256;8.874;2023-06-26T10:34:50;16.60;;;8.00;;
3733;SDS011;1882;52.256;8.874;2023-06-26T10:37:17;10.87;;;7.00;;
3733;SDS011;1882;52.256;8.874;2023-06-26T10:39:52;13.13;;;8.07;;
3733;SDS011;1882;52.256;8.874;2023-06-26T10:42:33;12.57;;;8.20;;
3733;SDS011;1882;52.256;8.874;2023-06-26T10:45:13;11.20;;;7.43;;
3733;SDS011;1882;52.256;8.874;2023-06-26T10:47:47;12.07;;;7.77;;
3733;SDS011;1882;52.256;8.874;2023-06-26T10:50:19;11.60;;;7.27;;
3733;SDS011;1882;52.256;8.874;2023-06-26T10:55:48;13.40;;;7.30;;
3733;SDS011;1882;52.256;8.874;2023-06-26T11:03:37;10.33;;;6.93;;
3733;SDS011;1882;52.256;8.874;2023-06-26T11:06:12;8.67;;;6.03;;
3733;SDS011;1882;52.256;8.874;2023-06-26T11:08:53;10.97;;;6.80;;
3733;SDS011;1882;52.256;8.874;2023-06-26T11:11:21;8.50;;;5.67;;
3733;SDS011;1882;52.256;8.874;2023-06-26T11:13:48;11.97;;;5.43;;
3733;SDS011;1882;52.256;8.874;2023-06-26T11:16:15;8.80;;;5.30;;
3733;SDS011;1882;52.256;8.874;2023-06-26T11:18:42;7.97;;;4.93;;
3733;SDS011;1882;52.256;8.874;2023-06-26T11:21:10;8.07;;;5.40;;
3733;SDS011;1882;52.256;8.874;2023-06-26T11:23:42;8.50;;;4.50;;
3733;SDS011;1882;52.256;8.874;2023-06-26T11:26:18;7.53;;;4.73;;
3733;SDS011;1882;52.256;8.874;2023-06-26T11:31:28;5.63;;;3.83;;
3733;SDS011;1882;52.256;8.874;2023-06-26T11:33:59;8.47;;;3.90;;
3733;SDS011;1882;52.256;8.874;2023-06-26T11:36:27;5.97;;;3.90;;
3733;SDS011;1882;52.256;8.874;2023-06-26T11:41:21;6.93;;;4.00;;
3733;SDS011;1882;52.256;8.874;2023-06-26T11:43:51;5.17;;;3.70;;
3733;SDS011;1882;52.256;8.874;2023-06-26T11:46:19;5.73;;;3.73;;
3733;SDS011;1882;52.256;8.874;2023-06-26T11:48:47;4.63;;;3.33;;
3733;SDS011;1882;52.256;8.874;2023-06-26T11:51:14;6.00;;;3.50;;
3733;SDS011;1882;52.256;8.874;2023-06-26T11:53:42;4.90;;;3.27;;
3733;SDS011;1882;52.256;8.874;2023-06-26T11:56:13;5.20;;;3.20;;
3733;SDS011;1882;52.256;8.874;2023-06-26T12:01:38;5.60;;;3.37;;
3733;SDS011;1882;52.256;8.874;2023-06-26T12:04:07;5.70;;;3.60;;
3733;SDS011;1882;52.256;8.874;2023-06-26T12:06:36;3.37;;;2.90;;
3733;SDS011;1882;52.256;8.874;2023-06-26T12:09:07;4.17;;;3.10;;
3733;SDS011;1882;52.256;8.874;2023-06-26T12:11:36;4.07;;;3.17;;
3733;SDS011;1882;52.256;8.874;2023-06-26T12:14:05;4.50;;;3.20;;
3733;SDS011;1882;52.256;8.874;2023-06-26T12:16:35;6.30;;;3.03;;
3733;SDS011;1882;52.256;8.874;2023-06-26T12:19:08;4.10;;;3.33;;
3733;SDS011;1882;52.256;8.874;2023-06-26T12:24:04;3.63;;;3.17;;
3733;SDS011;1882;52.256;8.874;2023-06-26T12:26:32;5.67;;;3.20;;
3733;SDS011;1882;52.256;8.874;2023-06-26T12:29:05;4.50;;;3.30;;
3733;SDS011;1882;52.256;8.874;2023-06-26T12:31:33;5.00;;;3.20;;
3733;SDS011;1882;52.256;8.874;2023-06-26T12:34:00;4.23;;;3.30;;
3733;SDS011;1882;52.256;8.874;2023-06-26T12:36:27;3.53;;;2.80;;
3733;SDS011;1882;52.256;8.874;2023-06-26T12:38:54;5.00;;;3.27;;
3733;SDS011;1882;52.256;8.874;2023-06-26T12:41:23;9.03;;;3.40;;
3733;SDS011;1882;52.256;8.874;2023-06-26T12:43:55;5.67;;;3.33;;
3733;SDS011;1882;52.256;8.874;2023-06-26T12:46:33;10.70;;;3.87;;
3733;SDS011;1882;52.256;8.874;2023-06-26T12:49:03;7.87;;;3.50;;
3733;SDS011;1882;52.256;8.874;2023-06-26T12:51:37;4.37;;;3.10;;
3733;SDS011;1882;52.256;8.874;2023-06-26T12:54:04;5.17;;;3.20;;
3733;SDS011;1882;52.256;8.874;2023-06-26T12:56:31;5.43;;;3.30;;
3733;SDS011;1882;52.256;8.874;2023-06-26T12:58:58;4.67;;;3.17;;
3733;SDS011;1882;52.256;8.874;2023-06-26T13:01:24;6.17;;;3.47;;
3733;SDS011;1882;52.256;8.874;2023-06-26T13:03:51;5.53;;;2.90;;
3733;SDS011;1882;52.256;8.874;2023-06-26T13:06:18;3.67;;;3.30;;
3733;SDS011;1882;52.256;8.874;2023-06-26T13:08:45;5.87;;;3.30;;
3733;SDS011;1882;52.256;8.874;2023-06-26T13:11:12;3.83;;;3.40;;
3733;SDS011;1882;52.256;8.874;2023-06-26T13:13:39;4.97;;;2.90;;
3733;SDS011;1882;52.256;8.874;2023-06-26T13:16:05;3.17;;;2.70;;
3733;SDS011;1882;52.256;8.874;2023-06-26T13:18:34;4.57;;;2.83;;
3733;SDS011;1882;52.256;8.874;2023-06-26T13:21:01;5.00;;;2.90;;
3733;SDS011;1882;52.256;8.874;2023-06-26T13:23:28;4.73;;;3.00;;
3733;SDS011;1882;52.256;8.874;2023-06-26T13:25:56;4.57;;;3.07;;
3733;SDS011;1882;52.256;8.874;2023-06-26T13:28:25;3.70;;;3.03;;
3733;SDS011;1882;52.256;8.874;2023-06-26T13:31:02;3.23;;;2.90;;
3733;SDS011;1882;52.256;8.874;2023-06-26T13:33:42;7.10;;;3.53;;
3733;SDS011;1882;52.256;8.874;2023-06-26T13:36:10;19.33;;;4.97;;
3733;SDS011;1882;52.256;8.874;2023-06-26T13:38:43;4.53;;;3.70;;
3733;SDS011;1882;52.256;8.874;2023-06-26T13:41:10;3.77;;;3.20;;
3733;SDS011;1882;52.256;8.874;2023-06-26T13:43:37;10.83;;;4.53;;
3733;SDS011;1882;52.256;8.874;2023-06-26T13:46:04;6.83;;;3.60;;
3733;SDS011;1882;52.256;8.874;2023-06-26T13:48:33;7.17;;;3.80;;
3733;SDS011;1882;52.256;8.874;2023-06-26T13:51:03;4.10;;;3.63;;
3733;SDS011;1882;52.256;8.874;2023-06-26T13:53:32;4.33;;;3.30;;
3733;SDS011;1882;52.256;8.874;2023-06-26T13:56:04;7.53;;;3.37;;
3733;SDS011;1882;52.256;8.874;2023-06-26T13:58:34;3.40;;;3.10;;
3733;SDS011;1882;52.256;8.874;2023-06-26T14:01:05;4.60;;;3.40;;
3733;SDS011;1882;52.256;8.874;2023-06-26T14:03:32;8.20;;;3.30;;
3733;SDS011;1882;52.256;8.874;2023-06-26T14:06:00;3.83;;;3.53;;
3733;SDS011;1882;52.256;8.874;2023-06-26T14:08:30;4.40;;;3.27;;
3733;SDS011;1882;52.256;8.874;2023-06-26T14:10:59;7.17;;;4.33;;
3733;SDS011;1882;52.256;8.874;2023-06-26T14:13:35;7.77;;;4.20;;
3733;SDS011;1882;52.256;8.874;2023-06-26T14:16:04;7.83;;;4.13;;
3733;SDS011;1882;52.256;8.874;2023-06-26T14:18:35;5.83;;;4.20;;
3733;SDS011;1882;52.256;8.874;2023-06-26T14:21:01;9.33;;;4.27;;
3733;SDS011;1882;52.256;8.874;2023-06-26T14:23:30;8.37;;;4.63;;
3733;SDS011;1882;52.256;8.874;2023-06-26T14:26:08;8.40;;;4.63;;
3733;SDS011;1882;52.256;8.874;2023-06-26T14:28:35;7.90;;;4.77;;
3733;SDS011;1882;52.256;8.874;2023-06-26T14:31:05;7.50;;;4.07;;
3733;SDS011;1882;52.256;8.874;2023-06-26T14:33:34;5.40;;;3.90;;
3733;SDS011;1882;52.256;8.874;2023-06-26T14:36:08;3.73;;;3.23;;
3733;SDS011;1882;52.256;8.874;2023-06-26T14:38:35;6.20;;;3.70;;
3733;SDS011;1882;52.256;8.874;2023-06-26T14:41:04;6.57;;;3.13;;
3733;SDS011;1882;52.256;8.874;2023-06-26T14:43:39;10.07;;;3.93;;
3733;SDS011;1882;52.256;8.874;2023-06-26T14:46:06;5.20;;;3.80;;
3733;SDS011;1882;52.256;8.874;2023-06-26T14:48:33;5.30;;;3.40;;
3733;SDS011;1882;52.256;8.874;2023-06-26T14:51:00;5.70;;;3.50;;
3733;SDS011;1882;52.256;8.874;2023-06-26T14:53:39;3.90;;;2.97;;
3733;SDS011;1882;52.256;8.874;2023-06-26T14:56:06;9.23;;;3.13;;
3733;SDS011;1882;52.256;8.874;2023-06-26T14:58:34;8.70;;;2.87;;
3733;SDS011;1882;52.256;8.874;2023-06-26T15:01:04;3.40;;;2.60;;
3733;SDS011;1882;52.256;8.874;2023-06-26T15:03:31;4.90;;;3.00;;
3733;SDS011;1882;52.256;8.874;2023-06-26T15:06:00;4.50;;;2.83;;
3733;SDS011;1882;52.256;8.874;2023-06-26T15:08:29;6.33;;;2.90;;
3733;SDS011;1882;52.256;8.874;2023-06-26T15:11:01;3.00;;;2.70;;
3733;SDS011;1882;52.256;8.874;2023-06-26T15:13:31;5.10;;;2.60;;
3733;SDS011;1882;52.256;8.874;2023-06-26T15:16:00;10.50;;;3.10;;
3733;SDS011;1882;52.256;8.874;2023-06-26T15:18:29;6.23;;;3.03;;
3733;SDS011;1882;52.256;8.874;2023-06-26T15:21:05;5.60;;;2.60;;
3733;SDS011;1882;52.256;8.874;2023-06-26T15:23:32;4.60;;;2.87;;
3733;SDS011;1882;52.256;8.874;2023-06-26T15:26:00;3.50;;;2.60;;
3733;SDS011;1882;52.256;8.874;2023-06-26T15:28:31;6.67;;;3.30;;
3733;SDS011;1882;52.256;8.874;2023-06-26T15:30:59;3.47;;;2.47;;
3733;SDS011;1882;52.256;8.874;2023-06-26T15:33:33;2.80;;;2.60;;
3733;SDS011;1882;52.256;8.874;2023-06-26T15:36:00;2.60;;;2.30;;
3733;SDS011;1882;52.256;8.874;2023-06-26T15:38:29;5.77;;;2.60;;
3733;SDS011;1882;52.256;8.874;2023-06-26T15:40:56;4.00;;;2.53;;
3733;SDS011;1882;52.256;8.874;2023-06-26T15:43:25;4.93;;;2.70;;